Terminal Aerodrome Forecast
Issued by NWS Anchorage, AK

Home | Current Version | Previous Version | Text Only | Print | Product List | Glossary On
Versions: 1 2 3 4 5 6 7 8 9 10 11 12 13 14 15 16 17 18
000
FTAK31 PANC 230807 AAB
TAFANC
TAF AMD
PANC 230807Z 2308/2412 36007KT P6SM VCSH FEW015 BKN080 OVC110
      TEMPO 2308/2311 5SM -SHSN SCT015 OVC040
     FM231100 36005KT 2SM -SN BKN020 OVC030
     FM231300 35004KT 1SM -SN OVC015
     FM231800 35005KT 3SM -SN SCT015 OVC030
     FM232200 36006KT 6SM -SN SCT025 OVC040=

USA.gov is the U.S. government's official web portal to all federal, state and local government web resources and services.